Main page
METAR-TAF:

METAR-TAF

Airports :

Simón Bolívar International Airport

Caracas, Venezuela

latitude: 10-36N, longitude: 066-59W, elevation: 43 m

Current weather observation

The report was made 1 hour and 50 minutes ago, at 10:00 UTC
Calm wind
Temperature 24°C
Humidity 89%
Pressure 1010 hPa
Visibility 10 km or more
Scattered clouds at a height of 1600 ft

METAR: SVMI 231000Z 00000KT 9999 SCT016 24/22 Q1010

Time: 07:50 (11:50 UTC)

Forecast

The report was made 1 hour and 50 minutes ago, at 10:00 UTC
Forecast valid from 23 at 12 UTC to 24 at 12 UTC
Wind 9 kt from the West/Southwest
Visibility 10 km or more
Few clouds at a height of 1600 ft
Becoming
from 23 at 13 UTC to 23 at 17 UTC
Wind 8 kt from the West/Southwest
Visibility 10 km or more
Few clouds at a height of 1600 ft

TAF: SVMI 231000Z 2312/2412 24009KT 9999 FEW016 TX33/2318Z TN26/2408Z BECMG 2313/2317 25008KT 9999 FEW016

Weather observations and forecasts of more than 4000 airports (METAR and TAF reports).

The available stations are represented by yellow and red dots on the map.

Hover mouse over dot to see the name of the station.

Then click to see weather observations and forecasts.

To change the map : click on the green buttons with a black cross to zoom in, on the green button with a dash to zoom out, or on the green arrows for adjacent maps.


METAR-TAF: